createdAt,value
2018-05-08T00:00:06.702Z,16.49
2018-05-08T00:01:06.765Z,16.47
2018-05-08T00:02:59.771Z,16.35
2018-05-08T00:03:59.829Z,16.38
2018-05-08T00:05:52.821Z,16.31
2018-05-08T00:06:52.883Z,16.28
2018-05-08T00:08:45.963Z,16.29
2018-05-08T00:09:45.939Z,16.23
2018-05-08T00:11:38.932Z,16.15
2018-05-08T00:12:38.994Z,16.23
2018-05-08T00:14:31.995Z,16.20
2018-05-08T00:15:32.048Z,16.21
2018-05-08T00:17:25.055Z,16.21
2018-05-08T00:18:25.109Z,16.09
2018-05-08T00:20:18.106Z,16.05
2018-05-08T00:21:18.167Z,16.01
2018-05-08T00:23:11.173Z,15.98
2018-05-08T00:24:11.223Z,16.08
2018-05-08T00:26:04.213Z,16.05
2018-05-08T00:27:04.281Z,15.95
2018-05-08T00:28:57.278Z,15.95
2018-05-08T00:29:57.333Z,15.94
2018-05-08T00:31:50.331Z,15.84
2018-05-08T00:32:50.396Z,15.88
2018-05-08T00:34:43.405Z,15.82
2018-05-08T00:35:43.455Z,15.79
2018-05-08T00:37:36.459Z,15.64
2018-05-08T00:38:36.527Z,15.76
2018-05-08T00:40:29.510Z,15.65
2018-05-08T00:41:29.565Z,15.62
2018-05-08T00:43:22.578Z,15.55
2018-05-08T00:44:22.631Z,15.54
2018-05-08T00:46:15.621Z,15.55
2018-05-08T00:47:15.685Z,15.52
2018-05-08T00:49:08.684Z,15.54
2018-05-08T00:50:08.740Z,15.42
2018-05-08T00:52:01.737Z,15.46
2018-05-08T00:53:01.797Z,15.43
2018-05-08T00:54:54.801Z,15.54
2018-05-08T00:55:54.857Z,15.47
2018-05-08T00:57:47.859Z,15.43
2018-05-08T00:58:47.910Z,15.52
2018-05-08T01:00:40.907Z,15.49
2018-05-08T01:01:40.967Z,15.46
2018-05-08T01:03:33.980Z,15.46
2018-05-08T01:04:34.034Z,15.51
2018-05-08T01:06:27.022Z,15.29
2018-05-08T01:07:27.090Z,15.47
2018-05-08T01:09:20.088Z,15.31
2018-05-08T01:10:20.139Z,15.42
2018-05-08T01:12:13.130Z,15.44
2018-05-08T01:13:13.199Z,15.40
2018-05-08T01:15:06.195Z,15.39
2018-05-08T01:16:06.248Z,15.49
2018-05-08T01:17:59.253Z,15.40
2018-05-08T01:18:59.310Z,15.42
2018-05-08T01:20:52.299Z,15.35
2018-05-08T01:21:52.363Z,15.21
2018-05-08T01:23:45.364Z,15.36
2018-05-08T01:24:45.421Z,15.21
2018-05-08T01:26:38.416Z,15.28
2018-05-08T01:27:38.532Z,15.39
2018-05-08T01:29:31.494Z,15.37
2018-05-08T01:30:31.551Z,15.44
2018-05-08T01:32:24.541Z,15.39
2018-05-08T01:33:24.605Z,15.25
2018-05-08T01:35:17.604Z,15.29
2018-05-08T01:36:17.669Z,15.24
2018-05-08T01:38:10.663Z,15.27
2018-05-08T01:39:10.717Z,15.18
2018-05-08T01:41:03.708Z,15.15
2018-05-08T01:42:03.770Z,15.14
2018-05-08T01:43:56.771Z,15.09
2018-05-08T01:44:56.832Z,15.07
2018-05-08T01:46:49.814Z,15.04
2018-05-08T01:47:49.879Z,15.07
2018-05-08T01:49:42.882Z,15.04
2018-05-08T01:50:42.939Z,15.04
2018-05-08T01:52:35.936Z,15.03
2018-05-08T01:53:35.997Z,15.00
2018-05-08T01:55:28.996Z,14.92
2018-05-08T01:56:29.050Z,14.89
2018-05-08T01:58:22.050Z,15.00
2018-05-08T01:59:22.105Z,14.91
2018-05-08T02:01:15.099Z,14.91
2018-05-08T02:02:15.163Z,14.82
2018-05-08T02:04:08.166Z,14.85
2018-05-08T02:05:08.219Z,14.82
2018-05-08T02:07:01.213Z,14.72
2018-05-08T02:08:01.273Z,14.77
2018-05-08T02:09:54.269Z,14.73
2018-05-08T02:10:54.320Z,14.73
2018-05-08T02:12:47.316Z,14.73
2018-05-08T02:13:47.695Z,14.68
2018-05-08T02:15:40.381Z,14.69
2018-05-08T02:16:40.434Z,14.73
2018-05-08T02:18:33.441Z,14.58
2018-05-08T02:19:33.496Z,14.62
2018-05-08T02:21:26.489Z,14.66
2018-05-08T02:22:26.550Z,14.54
2018-05-08T02:24:19.552Z,14.50
2018-05-08T02:25:19.609Z,14.62
2018-05-08T02:27:12.597Z,14.55
2018-05-08T02:28:12.664Z,14.53
2018-05-08T02:30:05.657Z,14.44
2018-05-08T02:31:05.713Z,14.41
2018-05-08T02:32:58.723Z,14.48
2018-05-08T02:33:58.788Z,14.51
2018-05-08T02:35:51.786Z,14.48
2018-05-08T02:36:51.838Z,14.47
2018-05-08T02:38:44.845Z,14.37
2018-05-08T02:39:44.901Z,14.32
2018-05-08T02:41:37.886Z,14.47
2018-05-08T02:42:37.949Z,14.37
2018-05-08T02:44:30.945Z,14.33
2018-05-08T02:45:30.999Z,14.30
2018-05-08T02:47:23.995Z,14.30
2018-05-08T02:48:24.050Z,14.20
2018-05-08T02:50:17.050Z,14.23
2018-05-08T02:51:17.101Z,14.17
2018-05-08T02:53:10.099Z,14.14
2018-05-08T02:54:10.162Z,14.12
2018-05-08T02:56:03.159Z,14.11
2018-05-08T02:57:03.213Z,14.12
2018-05-08T02:58:56.212Z,14.05
2018-05-08T02:59:56.262Z,14.07
2018-05-08T03:01:49.768Z,14.11
2018-05-08T03:02:49.825Z,14.08
2018-05-08T03:04:42.831Z,14.08
2018-05-08T03:05:42.886Z,14.05
2018-05-08T03:07:35.873Z,14.05
2018-05-08T03:08:35.936Z,14.10
2018-05-08T03:10:28.932Z,14.14
2018-05-08T03:11:28.987Z,14.14
2018-05-08T03:13:21.975Z,14.17
2018-05-08T03:14:22.041Z,14.07
2018-05-08T03:16:15.060Z,14.08
2018-05-08T03:17:15.090Z,14.12
2018-05-08T03:19:08.084Z,14.15
2018-05-08T03:20:08.143Z,14.14
2018-05-08T03:22:01.132Z,14.04
2018-05-08T03:23:01.196Z,14.03
2018-05-08T03:24:54.188Z,14.11
2018-05-08T03:25:54.244Z,13.96
2018-05-08T03:27:47.235Z,13.96
2018-05-08T03:28:47.298Z,14.04
2018-05-08T03:30:40.295Z,13.89
2018-05-08T03:31:40.354Z,13.92
2018-05-08T03:33:33.358Z,13.97
2018-05-08T03:34:33.418Z,13.90
2018-05-08T03:36:26.414Z,13.89
2018-05-08T03:37:26.471Z,13.86
2018-05-08T03:39:19.484Z,13.89
2018-05-08T03:40:19.522Z,13.87
2018-05-08T03:42:12.528Z,13.85
2018-05-08T03:43:12.593Z,13.78
2018-05-08T03:45:05.582Z,13.85
2018-05-08T03:46:05.636Z,13.71
2018-05-08T03:47:58.639Z,13.85
2018-05-08T03:48:58.699Z,13.70
2018-05-08T03:50:51.699Z,13.70
2018-05-08T03:51:51.753Z,13.67
2018-05-08T03:53:44.752Z,13.65
2018-05-08T03:54:44.814Z,13.62
2018-05-08T03:56:37.819Z,13.62
2018-05-08T03:57:37.871Z,13.59
2018-05-08T03:59:30.873Z,13.60
2018-05-08T04:00:30.924Z,13.65
2018-05-08T04:02:23.923Z,13.63
2018-05-08T04:03:23.983Z,13.63
2018-05-08T04:05:16.994Z,13.68
2018-05-08T04:06:17.053Z,13.68
2018-05-08T04:08:10.036Z,13.70
2018-05-08T04:09:10.095Z,13.72
2018-05-08T04:11:03.103Z,13.74
2018-05-08T04:12:03.161Z,13.77
2018-05-08T04:13:56.152Z,13.81
2018-05-08T04:14:56.221Z,13.83
2018-05-08T04:16:49.220Z,13.81
2018-05-08T04:17:49.271Z,13.87
2018-05-08T04:19:42.270Z,13.81
2018-05-08T04:20:42.333Z,13.79
2018-05-08T04:22:35.323Z,13.79
2018-05-08T04:23:35.396Z,13.78
2018-05-08T04:25:28.400Z,13.81
2018-05-08T04:26:29.402Z,13.81
2018-05-08T04:28:21.442Z,13.85
2018-05-08T04:29:21.513Z,13.86
2018-05-08T04:31:14.501Z,13.87
2018-05-08T04:32:14.556Z,13.77
2018-05-08T04:34:07.550Z,13.90
2018-05-08T04:35:07.617Z,13.89
2018-05-08T04:37:00.614Z,13.85
2018-05-08T04:38:00.669Z,13.86
2018-05-08T04:39:53.678Z,13.92
2018-05-08T04:40:53.728Z,13.95
2018-05-08T04:42:46.728Z,14.03
2018-05-08T04:43:46.784Z,14.07
2018-05-08T04:45:39.785Z,14.03
2018-05-08T04:46:39.839Z,14.10
2018-05-08T04:48:32.839Z,14.10
2018-05-08T04:49:32.901Z,14.15
2018-05-08T04:51:25.899Z,14.20
2018-05-08T04:52:25.952Z,14.29
2018-05-08T04:54:18.949Z,14.30
2018-05-08T04:55:19.014Z,14.37
2018-05-08T04:57:12.017Z,14.40
2018-05-08T04:58:12.073Z,14.33
2018-05-08T05:00:05.076Z,14.33
2018-05-08T05:01:05.132Z,14.33
2018-05-08T05:02:58.121Z,14.47
2018-05-08T05:03:58.182Z,14.45
2018-05-08T05:05:51.195Z,14.48
2018-05-08T05:06:51.294Z,14.54
2018-05-08T05:08:44.242Z,14.62
2018-05-08T05:09:44.301Z,14.63
2018-05-08T05:11:37.304Z,14.60
2018-05-08T05:12:37.359Z,14.66
2018-05-08T05:14:30.358Z,14.77
2018-05-08T05:15:30.415Z,14.73
2018-05-08T05:17:23.411Z,14.73
2018-05-08T05:18:23.469Z,14.72
2018-05-08T05:20:16.470Z,14.84
2018-05-08T05:21:16.524Z,14.84
2018-05-08T05:23:09.521Z,15.04
2018-05-08T05:24:09.588Z,15.09
2018-05-08T05:26:02.588Z,15.06
2018-05-08T05:27:02.640Z,15.03
2018-05-08T05:28:55.633Z,15.09
2018-05-08T05:29:55.696Z,15.17
2018-05-08T05:31:48.701Z,15.11
2018-05-08T05:32:48.755Z,15.24
2018-05-08T05:34:41.750Z,15.35
2018-05-08T05:35:41.830Z,15.33
2018-05-08T05:37:34.819Z,15.39
2018-05-08T05:38:34.873Z,15.54
2018-05-08T05:40:27.885Z,15.55
2018-05-08T05:41:27.927Z,15.68
2018-05-08T05:43:20.922Z,15.68
2018-05-08T05:44:20.986Z,15.86
2018-05-08T05:46:13.997Z,15.80
2018-05-08T05:47:14.045Z,15.94
2018-05-08T05:49:07.038Z,16.08
2018-05-08T05:50:07.103Z,15.98
2018-05-08T05:52:00.101Z,16.24
2018-05-08T05:53:00.154Z,16.21
2018-05-08T05:54:53.158Z,16.24
2018-05-08T05:55:53.207Z,16.21
2018-05-08T05:57:46.213Z,16.35
2018-05-08T05:58:46.262Z,16.51
2018-05-08T06:00:39.262Z,16.75
2018-05-08T06:01:39.314Z,17.05
2018-05-08T06:03:32.300Z,17.39
2018-05-08T06:04:32.368Z,17.67
2018-05-08T06:06:25.442Z,18.18
2018-05-08T06:07:25.426Z,18.55
2018-05-08T06:09:18.422Z,19.31
2018-05-08T06:10:18.481Z,20.06
2018-05-08T06:12:11.480Z,22.20
2018-05-08T06:13:11.533Z,23.66
2018-05-08T06:15:05.031Z,25.65
2018-05-08T06:16:05.096Z,26.33
2018-05-08T06:17:58.127Z,27.32
2018-05-08T06:18:58.159Z,27.95
2018-05-08T06:20:51.155Z,28.48
2018-05-08T06:21:51.218Z,28.30
2018-05-08T06:23:44.230Z,28.88
2018-05-08T06:24:44.291Z,29.07
2018-05-08T06:26:37.351Z,28.74
2018-05-08T06:27:37.359Z,29.13
2018-05-08T06:29:30.375Z,29.02
2018-05-08T06:30:30.440Z,29.38
2018-05-08T06:32:23.443Z,29.54
2018-05-08T06:33:23.510Z,28.84
2018-05-08T06:35:16.528Z,29.42
2018-05-08T06:36:16.589Z,30.02
2018-05-08T06:38:09.600Z,30.85
2018-05-08T06:39:09.672Z,30.83
2018-05-08T06:41:02.695Z,30.83
2018-05-08T06:42:02.764Z,31.37
2018-05-08T06:43:55.779Z,32.07
2018-05-08T06:44:55.845Z,32.16
2018-05-08T06:46:48.854Z,32.15
2018-05-08T06:47:48.929Z,31.07
2018-05-08T06:49:41.956Z,32.00
2018-05-08T06:50:42.018Z,32.31
2018-05-08T06:52:35.028Z,33.11
2018-05-08T06:53:35.104Z,33.61
2018-05-08T06:55:28.131Z,34.05
2018-05-08T06:56:28.195Z,33.92
2018-05-08T06:58:21.208Z,33.43
2018-05-08T06:59:21.286Z,33.83
2018-05-08T07:01:14.315Z,34.11
2018-05-08T07:02:14.383Z,34.60
2018-05-08T07:04:07.406Z,35.29
2018-05-08T07:05:07.475Z,34.78
2018-05-08T07:07:00.492Z,34.96
2018-05-08T07:08:00.569Z,35.26
2018-05-08T07:09:53.595Z,35.68
2018-05-08T07:10:53.665Z,36.12
2018-05-08T07:12:46.680Z,36.12
2018-05-08T07:13:46.758Z,36.28
2018-05-08T07:15:40.320Z,34.80
2018-05-08T07:16:40.360Z,35.24
2018-05-08T07:18:33.381Z,35.64
2018-05-08T07:19:33.464Z,36.08
2018-05-08T07:21:26.486Z,34.75
2018-05-08T07:22:26.557Z,34.17
2018-05-08T07:24:19.584Z,32.86
2018-05-08T07:25:19.659Z,33.55
2018-05-08T07:27:12.680Z,34.60
2018-05-08T07:28:12.758Z,35.05
2018-05-08T07:30:05.813Z,34.78
2018-05-08T07:31:05.878Z,35.07
2018-05-08T07:32:58.876Z,35.63
2018-05-08T07:33:58.955Z,35.68
2018-05-08T07:35:51.988Z,36.08
2018-05-08T07:36:52.058Z,36.89
2018-05-08T07:38:45.080Z,36.98
2018-05-08T07:39:45.161Z,36.79
2018-05-08T07:41:38.193Z,37.44
2018-05-08T07:42:38.263Z,37.53
2018-05-08T07:44:31.302Z,35.34
2018-05-08T07:45:31.373Z,34.96
2018-05-08T07:47:24.391Z,35.08
2018-05-08T07:48:24.471Z,35.15
2018-05-08T07:50:17.517Z,33.50
2018-05-08T07:51:17.590Z,33.23
2018-05-08T07:53:10.615Z,33.67
2018-05-08T07:54:10.694Z,33.98
2018-05-08T07:56:03.728Z,33.68
2018-05-08T07:57:03.800Z,34.60
2018-05-08T07:58:56.830Z,35.61
2018-05-08T07:59:56.908Z,35.37
2018-05-08T08:01:49.944Z,35.79
2018-05-08T08:02:50.016Z,36.98
2018-05-08T08:04:43.048Z,37.37
2018-05-08T08:05:43.121Z,36.95
2018-05-08T08:07:36.219Z,37.90
2018-05-08T08:08:36.236Z,38.02
2018-05-08T08:10:29.278Z,39.30
2018-05-08T08:11:29.348Z,39.48
2018-05-08T08:13:22.379Z,36.88
2018-05-08T08:14:22.458Z,36.45
2018-05-08T08:16:15.497Z,35.95
2018-05-08T08:17:15.571Z,36.62
2018-05-08T08:19:08.600Z,38.05
2018-05-08T08:20:08.691Z,38.73
2018-05-08T08:22:01.757Z,37.71
2018-05-08T08:23:01.798Z,37.67
2018-05-08T08:24:54.860Z,37.83
2018-05-08T08:25:54.934Z,38.26
2018-05-08T08:27:47.965Z,37.75
2018-05-08T08:28:48.051Z,37.23
2018-05-08T08:30:41.090Z,36.05
2018-05-08T08:31:41.165Z,35.71
2018-05-08T08:33:34.196Z,35.55
2018-05-08T08:34:34.281Z,35.02
2018-05-08T08:36:27.320Z,35.63
2018-05-08T08:37:27.396Z,35.78
2018-05-08T08:39:20.448Z,35.02
2018-05-08T08:40:20.532Z,34.64
2018-05-08T08:42:13.573Z,35.68
2018-05-08T08:43:13.646Z,36.27
2018-05-08T08:45:06.697Z,34.71
2018-05-08T08:46:06.766Z,34.20
2018-05-08T08:47:59.799Z,35.00
2018-05-08T08:48:59.881Z,35.56
2018-05-08T08:50:52.926Z,36.08
2018-05-08T08:51:53.001Z,35.33
2018-05-08T08:53:46.033Z,34.73
2018-05-08T08:54:46.115Z,35.18
2018-05-08T08:56:39.161Z,35.58
2018-05-08T08:57:39.236Z,35.52
2018-05-08T08:59:32.283Z,35.18
2018-05-08T09:00:32.360Z,35.14
2018-05-08T09:02:25.399Z,33.45
2018-05-08T09:03:25.474Z,32.86
2018-05-08T09:05:18.512Z,32.95
2018-05-08T09:06:18.588Z,34.08
2018-05-08T09:08:11.619Z,35.90
2018-05-08T09:09:11.700Z,35.64
2018-05-08T09:11:04.744Z,35.88
2018-05-08T09:12:04.817Z,35.27
2018-05-08T09:13:57.853Z,35.12
2018-05-08T09:14:57.932Z,35.22
2018-05-08T09:16:50.980Z,35.08
2018-05-08T09:17:51.055Z,34.14
2018-05-08T09:19:44.127Z,33.84
2018-05-08T09:20:44.175Z,33.89
2018-05-08T09:22:37.214Z,31.70
2018-05-08T09:23:37.285Z,30.00
2018-05-08T09:25:30.320Z,29.42
2018-05-08T09:26:30.392Z,29.45
2018-05-08T09:28:23.416Z,29.29
2018-05-08T09:29:23.496Z,29.02
2018-05-08T09:31:16.527Z,28.11
2018-05-08T09:32:16.594Z,28.17
2018-05-08T09:34:09.613Z,27.35
2018-05-08T09:35:09.693Z,27.02
2018-05-08T09:37:02.723Z,27.17
2018-05-08T09:38:02.785Z,27.45
2018-05-08T09:39:55.808Z,27.51
2018-05-08T09:40:55.908Z,27.70
2018-05-08T09:42:48.904Z,27.64
2018-05-08T09:43:48.971Z,27.54
2018-05-08T09:45:41.996Z,27.45
2018-05-08T09:46:42.059Z,27.63
2018-05-08T09:48:35.077Z,27.70
2018-05-08T09:49:35.150Z,27.39
2018-05-08T09:51:28.173Z,27.35
2018-05-08T09:52:28.237Z,27.37
2018-05-08T09:54:21.247Z,27.78
2018-05-08T09:55:21.324Z,27.52
2018-05-08T09:57:14.343Z,27.21
2018-05-08T09:58:14.404Z,27.25
2018-05-08T10:00:07.419Z,27.42
2018-05-08T10:01:07.567Z,27.51
2018-05-08T10:03:00.533Z,27.48
2018-05-08T10:04:00.568Z,27.22
2018-05-08T10:05:53.585Z,27.21
2018-05-08T10:06:53.652Z,26.89
2018-05-08T10:08:46.661Z,26.96
2018-05-08T10:09:46.732Z,26.97
2018-05-08T10:11:39.748Z,26.97
2018-05-08T10:12:39.815Z,26.92
2018-05-08T10:14:32.821Z,27.21
2018-05-08T10:15:32.895Z,27.17
2018-05-08T10:17:25.914Z,27.39
2018-05-08T10:18:25.980Z,27.71
2018-05-08T10:20:18.989Z,27.90
2018-05-08T10:21:19.057Z,27.77
2018-05-08T10:23:12.083Z,27.44
2018-05-08T10:24:12.145Z,27.18
2018-05-08T10:26:05.157Z,27.03
2018-05-08T10:27:05.222Z,27.05
2018-05-08T10:28:58.228Z,27.33
2018-05-08T10:29:58.302Z,27.27
2018-05-08T10:31:51.317Z,27.44
2018-05-08T10:32:51.397Z,27.44
2018-05-08T10:34:44.385Z,27.45
2018-05-08T10:35:44.452Z,27.54
2018-05-08T10:37:37.467Z,27.39
2018-05-08T10:38:37.531Z,27.47
2018-05-08T10:40:30.537Z,27.07
2018-05-08T10:41:30.608Z,27.02
2018-05-08T10:43:23.625Z,26.83
2018-05-08T10:44:23.686Z,26.99
2018-05-08T10:46:16.700Z,27.03
2018-05-08T10:47:16.763Z,27.10
2018-05-08T10:49:09.771Z,27.40
2018-05-08T10:50:09.841Z,27.52
2018-05-08T10:52:02.889Z,27.67
2018-05-08T10:53:02.922Z,27.64
2018-05-08T10:54:55.927Z,27.42
2018-05-08T10:55:55.997Z,27.37
2018-05-08T10:57:49.013Z,27.44
2018-05-08T10:58:49.075Z,27.49
2018-05-08T11:00:42.084Z,27.33
2018-05-08T11:01:42.235Z,27.36
2018-05-08T11:03:35.174Z,27.33
2018-05-08T11:04:35.236Z,27.42
2018-05-08T11:06:28.248Z,27.36
2018-05-08T11:07:28.311Z,27.40
2018-05-08T11:09:21.312Z,27.51
2018-05-08T11:10:21.386Z,27.35
2018-05-08T11:12:14.404Z,27.48
2018-05-08T11:13:14.460Z,27.48
2018-05-08T11:15:07.983Z,27.65
2018-05-08T11:16:08.055Z,27.51
2018-05-08T11:18:01.140Z,27.37
2018-05-08T11:19:01.131Z,27.60
2018-05-08T11:20:54.142Z,27.73
2018-05-08T11:21:54.206Z,27.63
2018-05-08T11:23:47.220Z,27.42
2018-05-08T11:24:47.282Z,27.45
2018-05-08T11:26:40.406Z,27.39
2018-05-08T11:27:40.359Z,27.39
2018-05-08T11:29:33.367Z,27.45
2018-05-08T11:30:33.435Z,27.60
2018-05-08T11:32:26.454Z,27.51
2018-05-08T11:33:26.515Z,27.63
2018-05-08T11:35:19.521Z,27.65
2018-05-08T11:36:19.592Z,27.52
2018-05-08T11:38:12.616Z,27.63
2018-05-08T11:39:12.731Z,27.48
2018-05-08T11:41:05.682Z,27.37
2018-05-08T11:42:05.751Z,27.47
2018-05-08T11:43:58.767Z,27.75
2018-05-08T11:44:58.830Z,27.82
2018-05-08T11:46:51.843Z,27.67
2018-05-08T11:47:51.903Z,27.80
2018-05-08T11:49:44.908Z,27.54
2018-05-08T11:50:44.979Z,27.36
2018-05-08T11:52:37.999Z,27.39
2018-05-08T11:53:38.061Z,27.39
2018-05-08T11:55:31.067Z,27.36
2018-05-08T11:56:31.134Z,27.47
2018-05-08T11:58:24.155Z,27.40
2018-05-08T11:59:24.298Z,27.36
2018-05-08T12:01:17.226Z,27.36
2018-05-08T12:02:17.292Z,27.49
2018-05-08T12:04:10.306Z,27.55
2018-05-08T12:05:10.369Z,27.67
2018-05-08T12:07:03.387Z,27.87
2018-05-08T12:08:03.450Z,28.04
2018-05-08T12:09:56.456Z,27.83
2018-05-08T12:10:56.524Z,27.67
2018-05-08T12:12:49.537Z,27.74
2018-05-08T12:13:49.600Z,27.70
2018-05-08T12:15:43.114Z,27.52
2018-05-08T12:16:43.183Z,27.48
2018-05-08T12:18:36.201Z,27.47
2018-05-08T12:19:36.261Z,27.42
2018-05-08T12:21:29.263Z,27.54
2018-05-08T12:22:29.333Z,27.49
2018-05-08T12:24:22.354Z,27.78
2018-05-08T12:25:22.418Z,27.80
2018-05-08T12:27:15.432Z,27.95
2018-05-08T12:28:15.489Z,27.86
2018-05-08T12:30:08.495Z,27.47
2018-05-08T12:31:08.564Z,27.39
2018-05-08T12:33:01.580Z,27.49
2018-05-08T12:34:01.642Z,27.71
2018-05-08T12:35:54.653Z,27.59
2018-05-08T12:36:54.726Z,27.70
2018-05-08T12:38:47.735Z,27.82
2018-05-08T12:39:47.798Z,27.70
2018-05-08T12:41:40.805Z,27.67
2018-05-08T12:42:40.871Z,27.49
2018-05-08T12:44:33.904Z,27.65
2018-05-08T12:45:33.964Z,27.77
2018-05-08T12:47:26.979Z,27.87
2018-05-08T12:48:27.039Z,28.00
2018-05-08T12:50:20.047Z,28.04
2018-05-08T12:51:20.116Z,27.89
2018-05-08T12:53:13.129Z,27.90
2018-05-08T12:54:13.190Z,27.93
2018-05-08T12:56:06.211Z,28.05
2018-05-08T12:57:06.263Z,28.07
2018-05-08T12:58:59.319Z,27.80
2018-05-08T12:59:59.337Z,27.93
2018-05-08T13:01:52.346Z,28.00
2018-05-08T13:02:52.418Z,27.95
2018-05-08T13:04:45.429Z,27.67
2018-05-08T13:05:45.489Z,27.77
2018-05-08T13:07:38.505Z,27.70
2018-05-08T13:08:38.565Z,27.59
2018-05-08T13:10:31.570Z,27.60
2018-05-08T13:11:31.639Z,27.52
2018-05-08T13:13:24.653Z,27.87
2018-05-08T13:14:24.712Z,27.83
2018-05-08T13:16:17.719Z,27.77
2018-05-08T13:17:17.788Z,27.75
2018-05-08T13:19:10.802Z,27.89
2018-05-08T13:20:10.863Z,27.89
2018-05-08T13:22:03.874Z,28.00
2018-05-08T13:23:03.943Z,27.93
2018-05-08T13:24:56.965Z,27.87
2018-05-08T13:25:57.019Z,27.90
2018-05-08T13:27:50.034Z,28.00
2018-05-08T13:28:50.091Z,27.92
2018-05-08T13:30:43.099Z,27.95
2018-05-08T13:31:43.166Z,27.64
2018-05-08T13:33:36.175Z,27.64
2018-05-08T13:34:36.241Z,27.59
2018-05-08T13:36:29.249Z,27.59
2018-05-08T13:37:29.317Z,27.59
2018-05-08T13:39:22.331Z,27.68
2018-05-08T13:40:22.393Z,27.71
2018-05-08T13:42:15.401Z,27.86
2018-05-08T13:43:15.486Z,27.93
2018-05-08T13:45:08.768Z,27.64
2018-05-08T13:46:08.544Z,27.60
2018-05-08T13:48:01.581Z,27.65
2018-05-08T13:49:01.628Z,27.68
2018-05-08T13:50:54.628Z,27.67
2018-05-08T13:51:54.698Z,27.64
2018-05-08T13:53:47.711Z,27.45
2018-05-08T13:54:47.818Z,27.45
2018-05-08T13:56:40.785Z,27.37
2018-05-08T13:57:40.853Z,27.27
2018-05-08T13:59:33.867Z,27.18
2018-05-08T14:00:33.929Z,27.40
2018-05-08T14:02:26.933Z,27.44
2018-05-08T14:03:27.005Z,27.48
2018-05-08T14:05:20.021Z,27.51
2018-05-08T14:06:20.076Z,27.40
2018-05-08T14:08:13.091Z,27.37
2018-05-08T14:09:13.154Z,27.42
2018-05-08T14:11:06.159Z,27.71
2018-05-08T14:12:06.229Z,27.68
2018-05-08T14:13:59.233Z,27.67
2018-05-08T14:14:59.307Z,27.68
2018-05-08T14:16:52.304Z,27.63
2018-05-08T14:17:52.370Z,27.58
2018-05-08T14:19:45.383Z,27.54
2018-05-08T14:20:45.468Z,27.63
2018-05-08T14:22:38.450Z,27.73
2018-05-08T14:23:38.520Z,27.70
2018-05-08T14:25:31.532Z,27.67
2018-05-08T14:26:31.595Z,27.75
2018-05-08T14:28:24.607Z,27.67
2018-05-08T14:29:24.672Z,27.78
2018-05-08T14:31:17.749Z,27.89
2018-05-08T14:32:17.748Z,27.77
2018-05-08T14:34:10.760Z,27.65
2018-05-08T14:35:10.823Z,27.52
2018-05-08T14:37:03.895Z,27.48
2018-05-08T14:38:03.897Z,27.65
2018-05-08T14:39:56.906Z,27.73
2018-05-08T14:40:56.968Z,27.67
2018-05-08T14:42:49.975Z,27.71
2018-05-08T14:43:50.048Z,27.70
2018-05-08T14:45:43.057Z,27.68
2018-05-08T14:46:43.118Z,27.64
2018-05-08T14:48:36.129Z,27.67
2018-05-08T14:49:36.290Z,27.59
2018-05-08T14:51:29.200Z,27.67
2018-05-08T14:52:29.265Z,27.64
2018-05-08T14:54:22.279Z,27.73
2018-05-08T14:55:22.339Z,27.63
2018-05-08T14:57:15.347Z,27.68
2018-05-08T14:58:15.419Z,27.60
2018-05-08T15:00:08.430Z,27.52
2018-05-08T15:01:08.494Z,27.47
2018-05-08T15:03:01.497Z,27.63
2018-05-08T15:04:01.566Z,27.51
2018-05-08T15:05:54.588Z,27.60
2018-05-08T15:06:54.648Z,27.51
2018-05-08T15:08:47.669Z,27.39
2018-05-08T15:09:47.725Z,27.39
2018-05-08T15:11:40.811Z,27.40
2018-05-08T15:12:40.798Z,27.42
2018-05-08T15:14:33.815Z,27.36
2018-05-08T15:15:33.871Z,27.39
2018-05-08T15:17:26.876Z,27.33
2018-05-08T15:18:26.947Z,27.29
2018-05-08T15:20:19.966Z,27.26
2018-05-08T15:21:20.028Z,27.21
2018-05-08T15:23:13.030Z,27.20
2018-05-08T15:24:13.101Z,27.25
2018-05-08T15:26:06.113Z,27.32
2018-05-08T15:27:06.173Z,27.36
2018-05-08T15:28:59.194Z,27.37
2018-05-08T15:29:59.248Z,27.39
2018-05-08T15:31:52.256Z,27.36
2018-05-08T15:32:52.326Z,27.33
2018-05-08T15:34:45.365Z,27.33
2018-05-08T15:35:45.398Z,27.33
2018-05-08T15:37:38.403Z,27.30
2018-05-08T15:38:38.470Z,27.21
2018-05-08T15:40:31.483Z,27.37
2018-05-08T15:41:31.544Z,27.33
2018-05-08T15:43:24.547Z,27.25
2018-05-08T15:44:24.617Z,27.30
2018-05-08T15:46:17.629Z,27.33
2018-05-08T15:47:17.781Z,27.22
2018-05-08T15:49:10.703Z,27.29
2018-05-08T15:50:10.766Z,27.35
2018-05-08T15:52:03.771Z,27.30
2018-05-08T15:53:03.843Z,27.26
2018-05-08T15:54:56.856Z,27.30
2018-05-08T15:55:56.916Z,27.20
2018-05-08T15:57:49.922Z,27.25
2018-05-08T15:58:49.996Z,27.14
2018-05-08T16:00:43.518Z,27.30
2018-05-08T16:01:43.571Z,27.18
2018-05-08T16:03:36.584Z,27.15
2018-05-08T16:04:36.642Z,27.17
2018-05-08T16:06:29.657Z,27.11
2018-05-08T16:07:29.717Z,27.10
2018-05-08T16:09:22.730Z,27.02
2018-05-08T16:10:22.794Z,27.02
2018-05-08T16:12:15.799Z,27.10
2018-05-08T16:13:15.867Z,27.00
2018-05-08T16:15:08.877Z,26.96
2018-05-08T16:16:08.941Z,26.99
2018-05-08T16:18:01.943Z,26.88
2018-05-08T16:19:02.010Z,26.78
2018-05-08T16:20:55.037Z,26.74
2018-05-08T16:21:55.084Z,26.85
2018-05-08T16:23:48.092Z,26.89
2018-05-08T16:24:48.156Z,26.83
2018-05-08T16:26:41.195Z,26.84
2018-05-08T16:27:41.261Z,26.84
2018-05-08T16:29:34.263Z,26.89
2018-05-08T16:30:34.423Z,26.81
2018-05-08T16:32:27.325Z,26.88
2018-05-08T16:33:27.396Z,26.84
2018-05-08T16:35:20.406Z,26.90
2018-05-08T16:36:20.469Z,26.85
2018-05-08T16:38:13.470Z,26.75
2018-05-08T16:39:13.538Z,26.70
2018-05-08T16:41:06.580Z,26.73
2018-05-08T16:42:06.615Z,26.58
2018-05-08T16:43:59.619Z,26.62
2018-05-08T16:44:59.688Z,26.51
2018-05-08T16:46:52.706Z,26.48
2018-05-08T16:47:52.772Z,26.47
2018-05-08T16:49:45.780Z,26.41
2018-05-08T16:50:45.838Z,26.40
2018-05-08T16:52:38.843Z,26.45
2018-05-08T16:53:38.911Z,26.41
2018-05-08T16:55:31.923Z,26.43
2018-05-08T16:56:31.982Z,26.40
2018-05-08T16:58:24.984Z,26.33
2018-05-08T16:59:25.061Z,26.36
2018-05-08T17:01:18.581Z,26.26
2018-05-08T17:02:18.638Z,26.29
2018-05-08T17:04:11.641Z,26.33
2018-05-08T17:05:11.708Z,26.22
2018-05-08T17:07:04.725Z,26.28
2018-05-08T17:08:04.788Z,26.19
2018-05-08T17:09:57.796Z,26.19
2018-05-08T17:10:57.859Z,26.22
2018-05-08T17:12:50.859Z,26.13
2018-05-08T17:13:50.928Z,26.10
2018-05-08T17:15:43.941Z,26.05
2018-05-08T17:16:44.001Z,26.03
2018-05-08T17:18:37.004Z,25.96
2018-05-08T17:19:37.070Z,26.00
2018-05-08T17:21:30.082Z,26.05
2018-05-08T17:22:30.143Z,26.00
2018-05-08T17:24:23.151Z,25.93
2018-05-08T17:25:23.217Z,25.90
2018-05-08T17:27:16.224Z,25.87
2018-05-08T17:28:16.286Z,25.78
2018-05-08T17:30:09.293Z,25.80
2018-05-08T17:31:09.353Z,25.73
2018-05-08T17:33:02.366Z,25.78
2018-05-08T17:34:02.423Z,25.68
2018-05-08T17:35:55.433Z,25.72
2018-05-08T17:36:55.496Z,25.62
2018-05-08T17:38:48.497Z,25.73
2018-05-08T17:39:48.562Z,25.63
2018-05-08T17:41:41.576Z,25.63
2018-05-08T17:42:41.634Z,25.60
2018-05-08T17:44:34.638Z,25.54
2018-05-08T17:45:34.708Z,25.54
2018-05-08T17:47:27.723Z,25.59
2018-05-08T17:48:27.785Z,25.43
2018-05-08T17:50:20.800Z,25.48
2018-05-08T17:51:20.856Z,25.43
2018-05-08T17:53:13.861Z,25.33
2018-05-08T17:54:13.929Z,25.32
2018-05-08T17:56:06.941Z,25.21
2018-05-08T17:57:06.995Z,25.26
2018-05-08T17:59:00.006Z,25.25
2018-05-08T18:00:00.069Z,25.18
2018-05-08T18:01:53.079Z,25.13
2018-05-08T18:02:53.139Z,25.10
2018-05-08T18:04:46.141Z,25.07
2018-05-08T18:05:46.211Z,25.07
2018-05-08T18:07:39.725Z,24.91
2018-05-08T18:08:39.782Z,24.93
2018-05-08T18:10:32.794Z,24.95
2018-05-08T18:11:32.853Z,24.80
2018-05-08T18:13:25.858Z,24.86
2018-05-08T18:14:25.924Z,24.77
2018-05-08T18:16:18.936Z,24.78
2018-05-08T18:17:18.995Z,24.76
2018-05-08T18:19:12.001Z,24.76
2018-05-08T18:20:12.081Z,24.65
2018-05-08T18:22:05.079Z,24.66
2018-05-08T18:23:05.135Z,24.51
2018-05-08T18:24:58.139Z,24.53
2018-05-08T18:25:58.208Z,24.47
2018-05-08T18:27:51.231Z,24.50
2018-05-08T18:28:51.283Z,24.36
2018-05-08T18:30:44.322Z,24.33
2018-05-08T18:31:44.360Z,24.24
2018-05-08T18:33:37.363Z,24.11